Time;durP1;ratioP1;P1;durP2;ratioP2;P2;SDS_P1;SDS_P2;PMS_P1;PMS_P2;Temp;Humidity;BMP_temperature;BMP_pressure;BME280_temperature;BME280_humidity;BME280_pressure;Samples;Min_cycle;Max_cycle;Signal;HPM_P1;HPM_P2
2022/01/17 00:00:40;;;;;;;29.57;14.73;;;;;;;-2.03;87.96;141783.23;1563429;92;21086;-62
2022/01/17 00:03:07;;;;;;;33.18;15.30;;;;;;;-1.99;87.48;141793.14;1563555;90;21572;-65
2022/01/17 00:05:33;;;;;;;29.65;15.38;;;;;;;-1.93;87.27;141806.83;1584680;89;21110;-63
2022/01/17 00:08:00;;;;;;;35.48;16.57;;;;;;;-1.87;86.83;141820.47;1582379;90;21082;-64
2022/01/17 00:10:28;;;;;;;28.40;14.87;;;;;;;-1.83;86.61;141831.64;1582440;90;21099;-64
2022/01/17 00:12:58;;;;;;;36.70;15.38;;;;;;;-1.78;86.30;141842.77;1582438;90;21027;-64
2022/01/17 00:15:42;;;;;;;36.40;17.02;;;;;;;-1.77;85.97;141846.52;1561861;90;21086;-63
2022/01/17 00:20:46;;;;;;;31.52;17.05;;;;;;;-1.70;85.44;141862.66;1556782;92;21139;-62
2022/01/17 00:23:13;;;;;;;;;;;;;;;-1.66;85.13;141872.56;1559338;92;21059;-63
2022/01/17 00:25:40;;;;;;;29.18;14.40;;;;;;;-1.61;85.06;141884.97;1575570;91;20132;-64
2022/01/17 00:28:07;;;;;;;37.83;16.65;;;;;;;-1.57;84.72;141894.92;1582397;89;21577;-63
2022/01/17 00:30:34;;;;;;;31.12;15.78;;;;;;;-1.54;84.47;141902.36;1582411;91;21054;-63
2022/01/17 00:33:00;;;;;;;33.73;15.95;;;;;;;-1.51;84.28;141907.33;1574062;90;21054;-63
2022/01/17 00:35:27;;;;;;;30.80;14.63;;;;;;;-1.46;83.99;141919.75;1556603;91;21138;-63
2022/01/17 00:37:54;;;;;;;35.98;14.87;;;;;;;-1.41;83.68;141933.39;1556865;92;21058;-64
2022/01/17 00:40:22;;;;;;;32.42;16.62;;;;;;;-1.37;83.18;141942.11;1556506;92;21678;-63
2022/01/17 00:42:49;;;;;;;30.40;15.93;;;;;;;-1.31;82.88;141956.98;1580329;91;21124;-64
2022/01/17 00:45:19;;;;;;;30.88;14.95;;;;;;;-1.25;82.45;141970.63;1582349;91;21106;-62
2022/01/17 00:47:45;;;;;;;30.10;14.60;;;;;;;-1.19;82.13;141985.56;1582149;90;21044;-64
2022/01/17 00:50:12;;;;;;;28.77;14.70;;;;;;;-1.13;81.65;142001.67;1558439;91;21101;-62
2022/01/17 00:52:39;;;;;;;28.92;13.45;;;;;;;-1.07;81.10;142014.08;1556809;92;21613;-64
2022/01/17 00:55:07;;;;;;;27.02;13.40;;;;;;;-1.02;80.77;142026.50;1556745;92;21043;-63
2022/01/17 00:57:33;;;;;;;34.80;13.95;;;;;;;-0.98;80.24;142037.69;1556854;92;21059;-63
2022/01/17 01:00:00;;;;;;;30.05;14.10;;;;;;;-0.95;79.96;142043.89;1574158;91;21063;-63
2022/01/17 01:02:26;;;;;;;27.40;14.00;;;;;;;-0.94;79.55;142047.64;1582372;89;21030;-63
2022/01/17 01:04:53;;;;;;;29.90;13.93;;;;;;;-0.92;79.13;142052.56;1583907;89;21463;-64
2022/01/17 01:07:20;;;;;;;24.57;14.10;;;;;;;-0.88;78.74;142062.53;1589409;89;21125;-63
2022/01/17 01:10:01;;;;;;;29.25;14.85;;;;;;;-0.83;78.71;142073.72;1577656;90;21568;-62
2022/01/17 01:12:15;;;;;;;37.65;15.18;;;;;;;-0.77;78.19;142087.36;1562211;91;21054;-63
2022/01/17 01:14:43;;;;;;;31.25;15.32;;;;;;;-0.71;77.79;142103.53;1563529;90;21585;-63
2022/01/17 01:17:29;;;;;;;30.70;13.22;;;;;;;-0.63;77.66;142120.94;1563319;92;21094;-62
2022/01/17 01:19:42;;;;;;;32.17;14.03;;;;;;;-0.57;77.34;142137.05;1578486;90;21126;-64
2022/01/17 01:27:40;;;;;;;28.05;13.78;;;;;;;-0.55;76.82;142142.03;1589335;90;21035;-63
2022/01/17 01:27:46;;;;;;;31.50;14.28;;;;;;;-0.49;76.55;142156.91;1589170;90;21086;-62
2022/01/17 01:30:13;;;;;;;29.17;13.53;;;;;;;-0.44;76.30;142168.11;1570701;90;21054;-63
2022/01/17 01:32:50;;;;;;;31.20;12.93;;;;;;;-0.39;76.01;142180.53;1563343;90;21320;-64
2022/01/17 01:35:13;;;;;;;30.97;14.18;;;;;;;-0.38;75.92;142181.77;1565301;90;21094;-62
2022/01/17 01:37:39;;;;;;;34.63;15.50;;;;;;;-0.36;75.81;142187.97;1589145;89;21125;-63
2022/01/17 01:40:07;;;;;;;29.32;14.38;;;;;;;-0.34;75.78;142192.95;1589241;89;21030;-61
2022/01/17 01:42:34;;;;;;;25.82;13.72;;;;;;;-0.32;75.84;142196.70;1589158;90;21110;-63
2022/01/17 01:45:02;;;;;;;34.03;15.88;;;;;;;-0.31;76.16;142200.41;1589128;90;21110;-63
2022/01/17 01:47:29;;;;;;;32.83;15.60;;;;;;;-0.33;76.72;142195.47;1566044;90;21090;-62
2022/01/17 01:49:56;;;;;;;35.65;15.18;;;;;;;-0.37;77.53;142185.50;1563290;91;21140;-62
2022/01/17 01:52:24;;;;;;;36.42;16.57;;;;;;;-0.43;78.82;142170.63;1563292;92;21183;-61
2022/01/17 01:54:51;;;;;;;31.87;14.50;;;;;;;-0.46;79.78;142164.41;1575659;90;21115;-64
2022/01/17 01:57:18;;;;;;;36.75;16.87;;;;;;;-0.48;80.82;142158.19;1589124;90;21584;-63
2022/01/17 01:59:45;;;;;;;31.05;15.00;;;;;;;-0.48;81.95;142158.19;1589186;90;21118;-62
2022/01/17 02:02:13;;;;;;;33.73;17.37;;;;;;;-0.52;83.01;142148.23;1589171;90;21116;-64
2022/01/17 02:04:40;;;;;;;31.40;16.80;;;;;;;-0.57;84.21;142137.05;1582647;90;21106;-61
2022/01/17 02:07:06;;;;;;;32.20;15.78;;;;;;;-0.60;85.36;142129.59;1565137;90;21089;-63
2022/01/17 02:09:33;;;;;;;37.35;15.90;;;;;;;-0.62;86.48;142124.62;1563355;90;21086;-61
2022/01/17 02:12:01;;;;;;;34.92;17.05;;;;;;;-0.62;87.28;142123.39;1563531;92;21050;-64
2022/01/17 02:14:27;;;;;;;38.55;17.73;;;;;;;-0.62;87.92;142123.39;1572007;89;21110;-64
2022/01/17 02:16:54;;;;;;;45.28;17.77;;;;;;;-0.64;89.05;142119.66;1614748;88;21042;-63
2022/01/17 02:19:25;;;;;;;33.58;17.20;;;;;;;-0.65;89.33;142117.19;1614271;89;21680;-63
2022/01/17 02:21:49;;;;;;;42.20;17.82;;;;;;;-0.62;89.84;142123.39;1614520;88;21066;-62
2022/01/17 02:24:20;;;;;;;36.48;18.30;;;;;;;-0.64;90.71;142118.41;1614485;89;21585;-65
2022/01/17 02:26:51;;;;;;;38.60;18.60;;;;;;;-0.71;91.31;142102.30;1592704;88;21164;-64
2022/01/17 02:29:18;;;;;;;36.80;18.98;;;;;;;-0.74;91.80;142094.81;1587873;90;21126;-61
2022/01/17 02:31:47;;;;;;;33.98;16.60;;;;;;;-0.75;91.91;142093.56;1587991;90;21039;-63
2022/01/17 02:34:14;;;;;;;32.75;15.83;;;;;;;-0.75;92.45;142093.56;1588065;90;21063;-64
2022/01/17 02:36:42;;;;;;;34.25;16.40;;;;;;;-0.76;92.67;142091.11;1605141;89;21027;-65
2022/01/17 02:39:09;;;;;;;34.00;15.98;;;;;;;-0.75;92.75;142093.56;1614219;87;21592;-63
2022/01/17 02:41:43;;;;;;;29.82;14.83;;;;;;;-0.73;92.94;142097.31;1614655;87;21177;-65
2022/01/17 02:44:07;;;;;;;37.08;16.37;;;;;;;-0.75;93.02;142093.56;1614480;88;21654;-62
2022/01/17 02:46:33;;;;;;;29.63;14.75;;;;;;;-0.75;93.14;142093.56;1602617;89;21606;-65
2022/01/17 02:49:04;;;;;;;37.33;16.02;;;;;;;-0.71;93.31;142103.53;1587869;89;21097;-64
2022/01/17 02:51:32;;;;;;;31.57;16.37;;;;;;;-0.70;93.39;142106.00;1588471;90;21118;-61
2022/01/17 02:53:59;;;;;;;31.97;15.85;;;;;;;-0.66;93.32;142115.95;1588983;90;21067;-63
2022/01/17 02:56:27;;;;;;;34.65;16.00;;;;;;;-0.61;93.27;142125.86;1589126;89;21038;-62
2022/01/17 02:58:54;;;;;;;34.23;16.85;;;;;;;-0.59;93.25;142130.84;1588105;90;21051;-62
2022/01/17 03:01:25;;;;;;;29.30;15.15;;;;;;;-0.57;93.24;142135.81;1588168;89;21494;-64
2022/01/17 03:03:54;;;;;;;37.03;18.50;;;;;;;-0.54;93.17;142143.27;1588076;89;21126;-63
2022/01/17 03:06:20;;;;;;;38.13;15.58;;;;;;;-0.49;93.09;142155.69;1585746;89;21098;-63
2022/01/17 03:08:47;;;;;;;37.58;16.50;;;;;;;-0.44;92.88;142168.11;1607491;89;21067;-62
2022/01/17 03:11:20;;;;;;;32.90;15.32;;;;;;;-0.41;92.58;142175.55;1607160;89;21075;-63
2022/01/17 03:13:50;;;;;;;35.98;16.15;;;;;;;-0.37;92.45;142185.50;1578853;89;21059;-63
2022/01/17 03:16:21;;;;;;;37.78;15.93;;;;;;;-0.34;91.74;142192.95;1581249;91;21028;-62
2022/01/17 03:18:51;;;;;;;31.37;16.07;;;;;;;-0.31;91.35;142200.41;1606266;89;21576;-63
2022/01/17 03:21:20;;;;;;;31.27;15.65;;;;;;;-0.29;90.69;142205.38;1607721;88;21541;-63
2022/01/17 03:23:50;;;;;;;34.13;14.43;;;;;;;-0.25;90.00;142214.11;1607636;88;21046;-63
2022/01/17 03:26:16;;;;;;;29.90;15.25;;;;;;;-0.24;89.46;142217.81;1607705;89;21046;-61
2022/01/17 03:28:43;;;;;;;33.48;15.43;;;;;;;-0.19;88.74;142227.77;1587549;88;21075;-63
2022/01/17 03:31:11;;;;;;;34.08;14.83;;;;;;;-0.14;88.07;142240.19;1581006;89;21119;-63
2022/01/17 03:33:38;;;;;;;35.55;15.35;;;;;;;-0.13;87.30;142243.89;1581088;91;21585;-62
2022/01/17 03:36:05;;;;;;;34.85;15.80;;;;;;;-0.09;86.38;142252.63;1581328;89;21067;-63
2022/01/17 03:38:34;;;;;;;27.67;14.87;;;;;;;-0.05;86.09;142262.53;1595412;89;21087;-63
2022/01/17 03:41:04;;;;;;;39.08;16.90;;;;;;;-0.01;85.44;142272.50;1607374;89;21078;-63
2022/01/17 03:43:31;;;;;;;42.43;16.02;;;;;;;0.01;85.38;142277.48;1606780;89;21045;-62
2022/01/17 03:45:58;;;;;;;35.70;16.60;;;;;;;0.05;84.58;142286.16;1607484;89;21067;-62
2022/01/17 03:48:27;;;;;;;28.20;13.50;;;;;;;0.06;84.47;142289.91;1598029;89;21015;-64
2022/01/17 03:50:55;;;;;;;37.13;15.50;;;;;;;0.11;83.96;142301.11;1581179;90;21059;-66
2022/01/17 03:53:23;;;;;;;30.25;14.38;;;;;;;0.11;83.05;142302.34;1581312;91;21039;-63
2022/01/17 03:55:50;;;;;;;32.28;16.20;;;;;;;0.13;82.81;142307.31;1591814;89;21063;-65
2022/01/17 03:58:17;;;;;;;37.65;15.15;;;;;;;0.14;82.33;142309.78;1607660;88;21066;-63
2022/01/17 04:00:49;;;;;;;30.17;13.83;;;;;;;0.17;81.67;142317.23;1600352;89;21066;-63
2022/01/17 04:03:17;;;;;;;31.35;14.95;;;;;;;0.18;81.15;142319.75;1581361;91;21169;-62
2022/01/17 04:05:44;;;;;;;34.18;14.95;;;;;;;0.23;80.44;142329.67;1588419;88;21102;-64
2022/01/17 04:08:12;;;;;;;31.45;13.70;;;;;;;0.26;80.56;142337.16;1614648;88;21063;-63
2022/01/17 04:10:39;;;;;;;29.32;14.00;;;;;;;0.31;80.17;142350.83;1614628;89;21023;-64
2022/01/17 04:13:09;;;;;;;28.87;13.05;;;;;;;0.32;79.37;142353.30;1614575;87;21074;-64
2022/01/17 04:15:37;;;;;;;29.20;13.65;;;;;;;0.36;79.12;142362.03;1613723;88;21071;-59
2022/01/17 04:18:09;;;;;;;33.08;14.85;;;;;;;0.40;78.63;142373.19;1588095;90;21058;-64
2022/01/17 04:20:38;;;;;;;27.58;13.88;;;;;;;0.42;78.44;142376.94;1588283;89;21035;-64
2022/01/17 04:23:09;;;;;;;30.12;14.07;;;;;;;0.43;78.08;142379.41;1588230;89;21074;-63
2022/01/17 04:25:39;;;;;;;28.32;13.38;;;;;;;0.43;77.81;142379.41;1600376;88;21139;-62
2022/01/17 04:28:08;;;;;;;31.33;13.40;;;;;;;0.41;77.79;142374.47;1614183;89;21058;-64
2022/01/17 04:30:36;;;;;;;24.75;12.88;;;;;;;0.41;78.20;142375.69;1614267;89;21046;-63
2022/01/17 04:33:04;;;;;;;29.35;14.00;;;;;;;0.42;78.68;142376.94;1614736;88;21042;-62
2022/01/17 04:35:31;;;;;;;28.10;13.53;;;;;;;0.39;79.72;142370.72;1606441;88;21087;-64
2022/01/17 04:38:03;;;;;;;29.57;13.00;;;;;;;0.35;80.57;142359.52;1588228;90;21054;-62
2022/01/17 04:40:37;;;;;;;26.35;12.70;;;;;;;0.31;81.70;142350.83;1588007;89;21063;-61
2022/01/17 04:43:16;;;;;;;27.85;14.13;;;;;;;0.25;82.72;142334.66;1588060;89;21055;-62
2022/01/17 04:45:36;;;;;;;25.08;15.15;;;;;;;0.17;83.81;142317.23;1593156;89;21042;-64
2022/01/17 04:48:04;;;;;;;36.80;14.20;;;;;;;0.15;84.89;142312.30;1614635;88;21590;-64
2022/01/17 04:50:31;;;;;;;23.87;12.68;;;;;;;0.10;85.71;142299.88;1614839;89;21457;-64
2022/01/17 04:53:00;;;;;;;33.50;14.70;;;;;;;0.06;86.77;142289.91;1614544;89;21066;-62
2022/01/17 04:55:28;;;;;;;27.27;13.48;;;;;;;0.03;87.94;142282.47;1593166;89;21058;-64
2022/01/17 04:57:58;;;;;;;27.80;14.50;;;;;;;0.01;89.05;142277.48;1588259;90;21074;-63
2022/01/17 05:00:26;;;;;;;31.73;15.03;;;;;;;-0.02;90.00;142271.27;1588149;89;21070;-64
2022/01/17 05:02:55;;;;;;;36.13;15.35;;;;;;;-0.02;91.23;142270.03;1587839;90;21073;-63
2022/01/17 05:05:22;;;;;;;28.40;14.10;;;;;;;-0.02;92.01;142270.03;1605257;89;21540;-63
2022/01/17 05:07:49;;;;;;;33.92;14.85;;;;;;;-0.03;92.64;142267.52;1614579;87;21549;-63
2022/01/17 05:10:20;;;;;;;27.37;14.58;;;;;;;-0.05;93.56;142263.81;1614669;89;21062;-63
2022/01/17 05:12:50;;;;;;;28.23;14.10;;;;;;;-0.04;93.66;142266.28;1614572;87;21071;-64
2022/01/17 05:15:30;;;;;;;27.85;13.38;;;;;;;-0.02;94.24;142270.03;1602215;89;21087;-62
2022/01/17 05:17:58;;;;;;;31.95;15.60;;;;;;;-0.01;94.51;142272.50;1587510;89;21035;-63
2022/01/17 05:20:24;;;;;;;30.77;14.38;;;;;;;0.01;94.73;142277.48;1587853;89;21608;-63
2022/01/17 05:22:51;;;;;;;34.50;14.68;;;;;;;0.04;95.00;142284.92;1608309;89;21134;-62
2022/01/17 05:25:18;;;;;;;30.17;14.65;;;;;;;0.06;95.26;142289.91;1614519;88;21070;-62
2022/01/17 05:27:45;;;;;;;32.03;15.50;;;;;;;0.07;95.26;142292.37;1614576;89;21034;-64
2022/01/17 05:30:16;;;;;;;31.12;15.75;;;;;;;0.07;95.31;142292.37;1614577;87;21074;-64
2022/01/17 05:32:43;;;;;;;33.98;15.03;;;;;;;0.09;95.74;142296.13;1599176;89;21083;-63
2022/01/17 05:35:11;;;;;;;31.35;15.35;;;;;;;0.06;95.84;142288.67;1587840;89;21075;-61
2022/01/17 05:37:38;;;;;;;30.17;15.25;;;;;;;0.06;96.29;142289.91;1588149;89;21046;-64
2022/01/17 05:40:08;;;;;;;30.25;14.78;;;;;;;0.07;96.61;142292.37;1587851;89;21071;-64
2022/01/17 05:42:35;;;;;;;32.13;15.40;;;;;;;0.10;96.70;142299.88;1608302;89;21007;-64
2022/01/17 05:45:03;;;;;;;31.60;15.72;;;;;;;0.14;96.81;142308.55;1614545;87;21107;-64
2022/01/17 05:47:29;;;;;;;31.82;15.40;;;;;;;0.16;96.89;142314.77;1614727;89;21054;-62
2022/01/17 05:49:57;;;;;;;28.05;14.40;;;;;;;0.17;97.08;142317.23;1614483;89;21070;-62
2022/01/17 05:52:24;;;;;;;27.87;14.30;;;;;;;0.18;97.10;142319.75;1599896;88;21068;-62
2022/01/17 05:54:52;;;;;;;29.48;15.48;;;;;;;0.22;96.99;142328.44;1588916;89;21059;-64
2022/01/17 05:57:19;;;;;;;31.07;15.08;;;;;;;0.21;96.95;142327.20;1614813;87;21573;-62
2022/01/17 05:59:46;;;;;;;29.65;15.88;;;;;;;0.24;96.98;142332.19;1614706;89;21015;-62
2022/01/17 06:02:12;;;;;;;32.35;16.60;;;;;;;0.27;97.02;142339.63;1595942;88;21118;-64
2022/01/17 06:04:40;;;;;;;26.10;14.30;;;;;;;0.31;96.95;142349.59;1588018;89;21102;-64
2022/01/17 06:07:07;;;;;;;33.95;15.53;;;;;;;0.37;97.00;142364.50;1584886;89;21074;-64
2022/01/17 06:09:34;;;;;;;26.93;15.15;;;;;;;0.40;96.82;142373.19;1586515;89;21040;-62
2022/01/17 06:12:03;;;;;;;33.92;16.12;;;;;;;0.42;96.64;142376.94;1556290;91;21142;-62
2022/01/17 06:14:31;;;;;;;31.57;15.32;;;;;;;0.45;96.64;142383.16;1595457;89;21587;-62
2022/01/17 06:16:57;;;;;;;38.17;16.20;;;;;;;0.46;96.39;142386.89;1596995;89;21526;-62
2022/01/17 06:19:24;;;;;;;33.98;16.30;;;;;;;0.51;96.42;142399.33;1597488;89;21092;-61
2022/01/17 06:21:51;;;;;;;29.82;15.60;;;;;;;0.56;96.19;142410.48;1550750;91;21045;-62
2022/01/17 06:24:17;;;;;;;28.85;15.75;;;;;;;0.57;96.05;142413.00;1537492;92;21045;-64
2022/01/17 06:26:44;;;;;;;31.55;15.60;;;;;;;0.58;95.77;142416.70;1592784;89;21552;-66
2022/01/17 06:29:14;;;;;;;32.30;16.45;;;;;;;0.59;95.65;142419.22;1589690;89;21580;-64
2022/01/17 06:31:44;;;;;;;30.00;16.70;;;;;;;0.60;95.48;142421.69;1581366;89;21048;-64
2022/01/17 06:34:12;;;;;;;34.03;16.40;;;;;;;0.62;95.45;142426.67;1586694;89;21561;-64
2022/01/17 06:36:41;;;;;;;33.00;15.40;;;;;;;0.67;95.18;142436.64;1607482;89;21055;-62
2022/01/17 06:39:10;;;;;;;34.08;16.30;;;;;;;0.70;94.82;142444.09;1602285;89;21133;-63
2022/01/17 06:41:39;;;;;;;35.13;15.98;;;;;;;0.73;94.77;142451.53;1594910;88;21586;-62
2022/01/17 06:44:07;;;;;;;35.50;16.52;;;;;;;0.78;94.59;142465.22;1596080;89;21071;-62
2022/01/17 06:46:34;;;;;;;33.30;15.85;;;;;;;0.82;94.29;142475.19;1551744;91;21506;-62
2022/01/17 06:49:03;;;;;;;36.25;17.05;;;;;;;0.86;94.21;142483.88;1542648;92;21084;-62
2022/01/17 06:51:30;;;;;;;41.75;18.80;;;;;;;0.91;93.88;142496.31;1538572;92;21040;-62
2022/01/17 06:53:56;;;;;;;34.27;17.20;;;;;;;0.93;93.67;142501.30;1523949;92;21065;-62
2022/01/17 06:56:23;;;;;;;34.20;18.35;;;;;;;0.95;93.51;142506.28;1542598;92;21105;-62
2022/01/17 06:58:50;;;;;;;36.95;18.48;;;;;;;0.98;93.25;142513.73;1540008;92;21205;-62
2022/01/17 07:01:22;;;;;;;31.87;17.67;;;;;;;0.99;92.80;142514.97;1519013;92;21130;-62
2022/01/17 07:03:50;;;;;;;32.58;16.60;;;;;;;1.02;92.75;142523.70;1523604;92;21084;-62
2022/01/17 07:06:18;;;;;;;32.58;16.60;;;;;;;1.07;92.41;142534.91;1540093;92;21093;-62
2022/01/17 07:08:45;;;;;;;32.10;17.15;;;;;;;1.08;91.88;142538.62;1598627;89;21096;-62
2022/01/17 07:11:13;;;;;;;33.95;18.35;;;;;;;1.13;91.95;142549.81;1599038;90;21068;-62
2022/01/17 07:13:40;;;;;;;33.85;17.23;;;;;;;1.20;91.73;142566.02;1599315;90;21115;-62
2022/01/17 07:16:07;;;;;;;32.65;16.25;;;;;;;1.26;91.25;142580.92;1598693;90;21590;-62
2022/01/17 07:18:35;;;;;;;36.15;16.73;;;;;;;1.28;90.80;142585.91;1598552;90;21645;-62
2022/01/17 07:21:02;;;;;;;29.72;16.80;;;;;;;1.29;90.54;142589.62;1598959;90;21060;-61
2022/01/17 07:23:29;;;;;;;32.93;17.55;;;;;;;1.31;90.13;142593.38;1599261;90;21618;-64
2022/01/17 07:25:56;;;;;;;29.98;16.42;;;;;;;1.28;89.85;142587.16;1599086;89;21084;-62
2022/01/17 07:28:22;;;;;;;33.65;16.80;;;;;;;1.30;89.88;142592.14;1599100;90;21032;-62
2022/01/17 07:30:50;;;;;;;34.45;17.35;;;;;;;1.35;89.64;142602.06;1599069;90;21113;-61
2022/01/17 07:33:17;;;;;;;36.33;18.70;;;;;;;1.36;89.53;142605.81;1599032;90;21562;-62
2022/01/17 07:35:45;;;;;;;40.58;17.92;;;;;;;1.37;89.35;142608.28;1599022;90;21527;-62
2022/01/17 07:38:13;;;;;;;37.55;19.10;;;;;;;1.35;89.18;142602.06;1599497;90;21087;-62
2022/01/17 07:40:42;;;;;;;38.85;19.52;;;;;;;1.35;89.29;142602.06;1599294;90;21060;-62
2022/01/17 07:43:09;;;;;;;33.58;18.73;;;;;;;1.36;89.34;142605.81;1599225;90;21071;-61
2022/01/17 07:45:43;;;;;;;38.05;19.02;;;;;;;1.39;89.22;142612.03;1599103;90;21076;-62
2022/01/17 07:48:22;;;;;;;36.28;19.52;;;;;;;1.42;89.30;142620.73;1600386;88;21075;-61
2022/01/17 07:50:39;;;;;;;37.48;18.73;;;;;;;1.45;89.22;142628.23;1597780;88;21116;-64
2022/01/17 07:53:05;;;;;;;36.77;19.07;;;;;;;1.48;89.30;142634.47;1615327;88;21530;-63
2022/01/17 07:55:32;;;;;;;37.30;19.45;;;;;;;1.54;89.28;142648.14;1613300;88;21093;-63
2022/01/17 07:57:59;;;;;;;35.92;19.17;;;;;;;1.58;89.21;142658.06;1565948;89;21094;-63
2022/01/17 08:00:26;;;;;;;34.50;18.77;;;;;;;1.59;89.00;142660.58;1606735;88;21554;-62
2022/01/17 08:02:56;;;;;;;34.55;19.65;;;;;;;1.60;89.08;142664.30;1605311;88;21608;-63
2022/01/17 08:05:24;;;;;;;34.83;19.80;;;;;;;1.64;89.07;142674.27;1601692;88;21134;-62
2022/01/17 08:07:51;;;;;;;34.55;19.15;;;;;;;1.68;89.14;142682.97;1569521;90;21053;-62
2022/01/17 08:10:17;;;;;;;40.33;21.33;;;;;;;1.73;88.95;142695.41;1626154;88;21059;-63
2022/01/17 08:12:46;;;;;;;42.67;22.20;;;;;;;1.74;88.93;142699.16;1610466;88;21138;-62
2022/01/17 08:15:16;;;;;;;43.40;21.97;;;;;;;1.72;88.81;142692.94;1603970;89;21556;-62
2022/01/17 08:17:45;;;;;;;39.13;19.95;;;;;;;1.70;89.07;142689.19;1606679;88;21610;-63
2022/01/17 08:20:14;;;;;;;39.85;21.20;;;;;;;1.68;89.22;142682.97;1613564;88;21599;-64
2022/01/17 08:22:41;;;;;;;38.88;20.85;;;;;;;1.69;89.41;142685.47;1612633;88;21615;-63
2022/01/17 08:25:09;;;;;;;38.33;21.05;;;;;;;1.70;89.54;142687.95;1612782;88;22468;-64
2022/01/17 08:27:36;;;;;;;38.58;20.43;;;;;;;1.73;89.61;142696.69;1576572;90;21095;-63
2022/01/17 08:30:05;;;;;;;41.05;21.85;;;;;;;1.74;89.72;142697.92;1571024;90;21084;-63
2022/01/17 08:32:33;;;;;;;34.03;19.32;;;;;;;1.76;89.79;142701.69;1571452;90;21282;-63
2022/01/17 08:35:00;;;;;;;38.78;20.82;;;;;;;1.76;89.85;142702.92;1563343;91;21114;-63
2022/01/17 08:37:30;;;;;;;35.17;20.48;;;;;;;1.80;89.95;142712.84;1556491;92;21601;-64
2022/01/17 08:39:57;;;;;;;37.28;20.05;;;;;;;1.87;89.90;142730.28;1572239;90;21072;-64
2022/01/17 08:42:23;;;;;;;38.83;21.87;;;;;;;1.90;89.75;142737.75;1549201;91;21147;-64
2022/01/17 08:44:51;;;;;;;35.60;20.65;;;;;;;1.92;89.79;142742.73;1572899;90;21255;-63
2022/01/17 08:47:19;;;;;;;36.03;20.57;;;;;;;1.92;89.73;142742.73;1565074;91;21633;-64
2022/01/17 08:49:47;;;;;;;34.65;20.40;;;;;;;1.90;89.75;142737.75;1554755;90;21085;-63
2022/01/17 08:52:15;;;;;;;37.53;20.60;;;;;;;1.89;89.91;142735.28;1615067;88;21062;-63
2022/01/17 08:54:43;;;;;;;34.83;21.07;;;;;;;1.89;89.97;142735.28;1622725;88;21106;-62
2022/01/17 08:57:11;;;;;;;38.73;19.23;;;;;;;1.93;90.04;142743.97;1569293;90;21137;-63
2022/01/17 08:59:38;;;;;;;35.40;19.90;;;;;;;1.94;90.05;142747.72;1522957;94;21136;-63
2022/01/17 09:02:05;;;;;;;35.85;21.15;;;;;;;1.95;90.04;142750.19;1546448;93;21194;-63
2022/01/17 09:04:31;;;;;;;35.00;19.90;;;;;;;1.97;90.10;142753.95;1527312;91;21162;-64
2022/01/17 09:06:58;;;;;;;35.30;19.45;;;;;;;1.99;89.93;142758.94;1570270;91;21127;-63
2022/01/17 09:09:25;;;;;;;39.30;20.57;;;;;;;2.01;89.96;142763.94;1545067;92;21147;-63
2022/01/17 09:11:51;;;;;;;37.05;21.55;;;;;;;2.02;89.88;142765.17;1548109;91;21794;-63
2022/01/17 09:14:20;;;;;;;37.10;19.92;;;;;;;2.04;89.92;142770.16;1549430;91;21308;-63
2022/01/17 09:16:46;;;;;;;38.23;20.30;;;;;;;2.07;89.82;142778.86;1611016;88;21090;-63
2022/01/17 09:19:13;;;;;;;38.25;20.95;;;;;;;2.11;89.65;142787.55;1621975;88;21113;-62
2022/01/17 09:21:41;;;;;;;43.55;20.97;;;;;;;2.14;89.24;142795.06;1616555;88;21532;-63
2022/01/17 09:24:08;;;;;;;39.08;20.50;;;;;;;2.11;89.21;142787.55;1611186;88;21026;-64
2022/01/17 09:26:35;;;;;;;33.05;18.87;;;;;;;2.16;89.03;142800.00;1610156;88;21041;-63
2022/01/17 09:29:02;;;;;;;32.65;19.07;;;;;;;2.18;88.71;142806.23;1575849;90;21567;-63
2022/01/17 09:31:29;;;;;;;32.03;18.75;;;;;;;2.18;88.48;142805.00;1569334;91;21622;-63
2022/01/17 09:33:56;;;;;;;31.15;17.35;;;;;;;2.16;88.27;142800.00;1575950;90;21111;-63
2022/01/17 09:36:25;;;;;;;33.80;19.37;;;;;;;2.17;88.30;142802.53;1622884;87;21078;-63
2022/01/17 09:38:52;;;;;;;37.60;21.33;;;;;;;2.15;88.27;142798.77;1623127;88;21051;-63
2022/01/17 09:41:19;;;;;;;36.15;21.15;;;;;;;2.16;88.27;142801.28;1621803;87;21141;-64
2022/01/17 09:43:45;;;;;;;35.40;19.67;;;;;;;2.19;88.32;142807.52;1580321;90;21691;-63
2022/01/17 09:46:14;;;;;;;33.40;18.70;;;;;;;2.22;88.15;142814.97;1570484;90;21096;-62
2022/01/17 09:48:47;;;;;;;35.48;19.20;;;;;;;2.20;87.94;142808.75;1622846;88;21082;-63
2022/01/17 09:51:18;;;;;;;33.05;19.10;;;;;;;2.17;88.05;142802.53;1620820;88;21046;-64
2022/01/17 09:53:44;;;;;;;31.75;18.35;;;;;;;2.14;88.18;142796.30;1620075;88;21034;-63
2022/01/17 09:56:11;;;;;;;35.05;18.92;;;;;;;2.15;88.23;142797.53;1577476;90;21624;-63
2022/01/17 09:58:40;;;;;;;33.55;18.27;;;;;;;2.17;88.27;142802.53;1576784;91;21757;-64
2022/01/17 10:01:09;;;;;;;31.60;17.95;;;;;;;2.17;88.30;142802.53;1550691;91;21088;-62
2022/01/17 10:03:37;;;;;;;33.42;19.87;;;;;;;2.19;88.37;142807.52;1622497;88;21168;-63
2022/01/17 10:06:04;;;;;;;33.33;19.67;;;;;;;2.22;88.32;142813.73;1622855;88;21635;-62
2022/01/17 10:08:30;;;;;;;32.40;19.05;;;;;;;2.22;88.28;142813.73;1624227;88;21117;-62
2022/01/17 10:11:02;;;;;;;31.27;19.77;;;;;;;2.20;88.26;142809.98;1625289;87;21125;-62
2022/01/17 10:13:39;;;;;;;35.85;19.15;;;;;;;2.17;88.39;142802.53;1625649;88;21165;-63
2022/01/17 10:16:12;;;;;;;32.70;18.75;;;;;;;2.14;88.48;142795.06;1597341;88;21091;-62
2022/01/17 10:18:58;;;;;;;33.08;19.15;;;;;;;2.11;88.63;142788.83;1602684;88;22291;-63
2022/01/17 10:21:44;;;;;;;36.30;19.70;;;;;;;2.14;88.80;142796.30;1593088;88;21622;-62
2022/01/17 10:24:29;;;;;;;36.15;20.37;;;;;;;2.18;88.75;142805.00;1589901;90;21050;-63
2022/01/17 10:35:37;;;;;;;34.00;18.80;;;;;;;2.24;88.53;142819.97;1613032;88;21070;-63
2022/01/17 10:38:15;;;;;;;31.57;18.48;;;;;;;2.24;88.46;142819.97;1620643;88;21180;-62
2022/01/17 10:41:02;;;;;;;29.80;17.65;;;;;;;2.26;88.33;142823.67;1623144;88;21560;-62
2022/01/17 10:43:34;;;;;;;30.40;18.27;;;;;;;2.24;88.27;142819.97;1618893;88;21069;-63
2022/01/17 10:46:09;;;;;;;32.20;18.52;;;;;;;2.25;88.33;142821.20;1611378;88;21058;-63
2022/01/17 10:48:41;;;;;;;31.25;18.82;;;;;;;2.25;88.21;142822.44;1589763;88;21083;-62
2022/01/17 10:51:10;;;;;;;32.80;18.85;;;;;;;2.23;88.23;142817.45;1589985;90;21087;-63
2022/01/17 10:53:40;;;;;;;32.28;17.98;;;;;;;2.20;88.20;142809.98;1600492;88;21082;-62
2022/01/17 10:56:10;;;;;;;29.82;17.27;;;;;;;2.22;88.19;142814.97;1592646;88;21625;-63
2022/01/17 10:58:39;;;;;;;28.80;17.80;;;;;;;2.20;88.15;142809.98;1590430;88;21166;-63
2022/01/17 11:01:13;;;;;;;28.45;17.75;;;;;;;2.19;88.12;142807.52;1599403;90;21165;-63
2022/01/17 11:03:43;;;;;;;27.67;16.32;;;;;;;2.18;88.19;142805.00;1567755;90;21072;-63
2022/01/17 11:06:14;;;;;;;27.75;16.67;;;;;;;2.18;88.37;142806.23;1617039;88;21614;-64
2022/01/17 11:08:41;;;;;;;29.48;16.15;;;;;;;2.24;88.27;142819.97;1620729;88;21173;-63
2022/01/17 11:11:10;;;;;;;29.77;18.02;;;;;;;2.28;88.05;142829.91;1615373;88;21125;-63
2022/01/17 11:13:42;;;;;;;29.50;17.40;;;;;;;2.29;87.97;142832.42;1577980;90;21519;-63
2022/01/17 11:16:13;;;;;;;27.50;16.97;;;;;;;2.28;87.85;142829.91;1595435;88;21715;-63
2022/01/17 11:18:45;;;;;;;26.67;16.27;;;;;;;2.26;87.73;142824.91;1589721;88;21158;-63
2022/01/17 11:21:16;;;;;;;29.97;18.00;;;;;;;2.25;87.78;142822.44;1603816;88;21178;-62
2022/01/17 11:23:47;;;;;;;27.67;17.15;;;;;;;2.25;87.77;142822.44;1608451;88;21089;-63
2022/01/17 11:26:15;;;;;;;27.10;15.70;;;;;;;2.24;87.79;142818.69;1566134;90;21104;-63
2022/01/17 11:28:42;;;;;;;29.12;17.23;;;;;;;2.26;87.75;142824.91;1606996;88;21089;-63
2022/01/17 11:31:13;;;;;;;27.32;16.50;;;;;;;2.28;87.71;142829.91;1605013;88;21145;-63
2022/01/17 11:33:41;;;;;;;30.95;17.65;;;;;;;2.30;87.56;142834.89;1609576;88;21113;-63